createdAt,value
2023-01-07T00:02:57.665Z,76.65
2023-01-07T00:06:01.046Z,76.66
2023-01-07T00:09:05.167Z,76.66
2023-01-07T00:12:07.014Z,76.68
2023-01-07T00:15:09.243Z,76.65
2023-01-07T00:18:11.041Z,76.71
2023-01-07T00:21:15.525Z,76.72
2023-01-07T00:24:18.467Z,76.65
2023-01-07T00:27:20.547Z,76.65
2023-01-07T00:30:22.412Z,76.69
2023-01-07T00:33:27.603Z,76.74
2023-01-07T00:36:32.430Z,76.65
2023-01-07T00:39:34.307Z,76.63
2023-01-07T00:42:56.204Z,76.63
2023-01-07T00:45:58.136Z,76.66
2023-01-07T00:49:01.355Z,76.66
2023-01-07T00:52:03.345Z,76.64
2023-01-07T00:55:05.539Z,76.65
2023-01-07T00:58:09.687Z,76.59
2023-01-07T01:01:12.103Z,76.75
2023-01-07T01:04:14.547Z,76.64
2023-01-07T01:07:16.399Z,76.63
2023-01-07T01:10:19.793Z,76.74
2023-01-07T01:13:21.986Z,76.75
2023-01-07T01:16:23.933Z,76.82
2023-01-07T01:19:25.887Z,76.86
2023-01-07T01:22:27.906Z,76.88
2023-01-07T01:25:29.750Z,76.89
2023-01-07T01:28:32.971Z,76.88
2023-01-07T01:31:34.947Z,76.91
2023-01-07T01:34:37.046Z,76.86
2023-01-07T01:37:38.939Z,76.89
2023-01-07T01:40:41.474Z,76.73
2023-01-07T01:43:44.860Z,76.69
2023-01-07T01:46:47.218Z,76.82
2023-01-07T01:50:12.380Z,76.75
2023-01-07T01:53:21.325Z,76.80
2023-01-07T01:56:31.378Z,76.73
2023-01-07T01:59:38.648Z,76.59
2023-01-07T02:02:56.422Z,76.76
2023-01-07T02:05:59.143Z,76.67
2023-01-07T02:09:01.287Z,76.76
2023-01-07T02:12:27.144Z,76.72
2023-01-07T02:15:45.826Z,76.64
2023-01-07T02:18:47.581Z,76.65
2023-01-07T02:22:27.533Z,76.68
2023-01-07T02:26:00.751Z,76.49
2023-01-07T02:29:05.348Z,76.33
2023-01-07T02:32:13.045Z,76.44
2023-01-07T02:35:36.071Z,76.31
2023-01-07T02:38:59.070Z,76.34
2023-01-07T02:42:36.283Z,76.56
2023-01-07T02:45:53.703Z,76.38
2023-01-07T02:49:09.121Z,76.36
2023-01-07T02:52:37.356Z,76.45
2023-01-07T02:56:06.990Z,76.30
2023-01-07T02:59:39.730Z,76.11
2023-01-07T03:02:58.747Z,76.15
2023-01-07T03:06:15.643Z,75.96
2023-01-07T03:09:40.225Z,75.71
2023-01-07T03:12:54.527Z,75.45
2023-01-07T03:16:09.667Z,74.96
2023-01-07T03:19:17.811Z,74.64
2023-01-07T03:22:23.608Z,74.29
2023-01-07T03:25:30.144Z,74.32
2023-01-07T03:28:39.964Z,74.47
2023-01-07T03:32:03.478Z,74.30
2023-01-07T03:35:06.112Z,74.14
2023-01-07T03:38:09.255Z,73.90
2023-01-07T03:41:31.342Z,73.75
2023-01-07T03:44:33.285Z,73.75
2023-01-07T03:47:37.817Z,73.68
2023-01-07T03:50:39.765Z,73.71
2023-01-07T03:53:41.821Z,73.46
2023-01-07T03:56:43.967Z,73.55
2023-01-07T03:59:45.802Z,73.40
2023-01-07T04:02:47.671Z,73.01
2023-01-07T04:05:55.992Z,73.01
2023-01-07T04:08:58.617Z,72.99
2023-01-07T04:12:01.083Z,72.96
2023-01-07T04:15:04.408Z,73.01
2023-01-07T04:18:06.840Z,73.02
2023-01-07T04:21:09.202Z,73.13
2023-01-07T04:24:11.253Z,73.12
2023-01-07T04:27:13.136Z,72.97
2023-01-07T04:30:15.356Z,72.77
2023-01-07T04:33:17.909Z,72.68
2023-01-07T04:36:20.463Z,72.83
2023-01-07T04:39:22.834Z,72.72
2023-01-07T04:42:24.978Z,72.45
2023-01-07T04:45:27.113Z,72.78
2023-01-07T04:48:29.611Z,72.83
2023-01-07T04:51:31.949Z,72.88
2023-01-07T04:54:34.296Z,72.98
2023-01-07T04:57:36.341Z,72.86
2023-01-07T05:00:38.263Z,72.97
2023-01-07T05:03:40.254Z,72.95
2023-01-07T05:06:42.820Z,73.19
2023-01-07T05:09:44.941Z,73.09
2023-01-07T05:12:47.296Z,73.33
2023-01-07T05:15:49.537Z,73.21
2023-01-07T05:18:51.476Z,73.48
2023-01-07T05:21:53.657Z,73.13
2023-01-07T05:24:55.954Z,73.19
2023-01-07T05:27:59.369Z,73.18
2023-01-07T05:31:01.739Z,73.48
2023-01-07T05:34:05.335Z,73.27
2023-01-07T05:37:07.788Z,73.33
2023-01-07T05:40:10.869Z,73.13
2023-01-07T05:43:12.904Z,73.13
2023-01-07T05:46:14.956Z,73.02
2023-01-07T05:49:17.165Z,73.12
2023-01-07T05:52:18.957Z,73.41
2023-01-07T05:55:20.922Z,73.43
2023-01-07T05:58:23.053Z,73.48
2023-01-07T06:01:24.929Z,73.36
2023-01-07T06:04:27.169Z,73.59
2023-01-07T06:07:29.063Z,73.42
2023-01-07T06:10:31.181Z,73.63
2023-01-07T06:13:33.504Z,73.61
2023-01-07T06:16:35.217Z,73.39
2023-01-07T06:19:37.285Z,73.66
2023-01-07T06:22:39.084Z,73.47
2023-01-07T06:25:40.889Z,73.74
2023-01-07T06:28:42.843Z,73.71
2023-01-07T06:31:44.629Z,73.79
2023-01-07T06:34:46.529Z,73.72
2023-01-07T06:37:48.461Z,73.86
2023-01-07T06:40:50.285Z,73.87
2023-01-07T06:43:52.110Z,73.79
2023-01-07T06:46:54.030Z,73.80
2023-01-07T06:49:55.903Z,73.77
2023-01-07T06:52:57.820Z,73.69
2023-01-07T06:55:59.622Z,73.56
2023-01-07T06:59:01.439Z,73.58
2023-01-07T07:02:03.455Z,73.85
2023-01-07T07:05:05.685Z,73.73
2023-01-07T07:08:07.613Z,73.81
2023-01-07T07:11:09.428Z,73.51
2023-01-07T07:14:11.314Z,73.40
2023-01-07T07:17:13.193Z,73.19
2023-01-07T07:20:15.227Z,73.24
2023-01-07T07:23:17.160Z,73.31
2023-01-07T07:26:19.066Z,73.52
2023-01-07T07:29:21.900Z,73.38
2023-01-07T07:32:27.775Z,73.56
2023-01-07T07:35:30.311Z,73.56
2023-01-07T07:38:32.278Z,73.65
2023-01-07T07:41:34.180Z,73.87
2023-01-07T07:44:36.338Z,74.06
2023-01-07T07:47:38.193Z,74.20
2023-01-07T07:50:41.046Z,74.59
2023-01-07T07:53:43.341Z,74.69
2023-01-07T07:56:45.315Z,74.81
2023-01-07T07:59:49.494Z,75.03
2023-01-07T08:02:51.493Z,74.99
2023-01-07T08:05:53.787Z,75.17
2023-01-07T08:08:55.612Z,75.31
2023-01-07T08:11:57.458Z,75.36
2023-01-07T08:14:59.278Z,75.40
2023-01-07T08:18:04.277Z,75.44
2023-01-07T08:21:06.182Z,75.60
2023-01-07T08:24:08.194Z,75.59
2023-01-07T08:27:10.049Z,75.57
2023-01-07T08:30:12.030Z,75.80
2023-01-07T08:33:13.998Z,75.64
2023-01-07T08:36:22.502Z,75.58
2023-01-07T08:39:25.106Z,75.30
2023-01-07T08:42:27.351Z,75.33
2023-01-07T08:45:29.367Z,75.23
2023-01-07T08:48:31.201Z,75.21
2023-01-07T08:51:33.045Z,75.20
2023-01-07T08:54:34.925Z,75.13
2023-01-07T08:57:36.843Z,75.19
2023-01-07T09:00:39.389Z,75.05
2023-01-07T09:03:41.669Z,74.87
2023-01-07T09:06:43.891Z,74.78
2023-01-07T09:09:45.827Z,74.81
2023-01-07T09:12:47.783Z,74.81
2023-01-07T09:15:49.731Z,74.61
2023-01-07T09:18:51.544Z,74.57
2023-01-07T09:21:53.412Z,74.70
2023-01-07T09:24:55.306Z,74.45
2023-01-07T09:27:57.340Z,74.34
2023-01-07T09:31:00.211Z,74.21
2023-01-07T09:34:02.047Z,73.98
2023-01-07T09:37:04.306Z,74.07
2023-01-07T09:40:07.826Z,73.94
2023-01-07T09:43:18.107Z,73.82
2023-01-07T09:46:20.055Z,73.72
2023-01-07T09:49:28.819Z,73.63
2023-01-07T09:52:51.122Z,73.42
2023-01-07T09:56:11.199Z,73.39
2023-01-07T09:59:14.908Z,73.38
2023-01-07T10:02:27.143Z,73.24
2023-01-07T10:05:38.768Z,73.22
2023-01-07T10:08:53.740Z,73.06
2023-01-07T10:12:10.740Z,72.90
2023-01-07T10:15:19.433Z,72.92
2023-01-07T10:18:45.853Z,72.97
2023-01-07T10:22:18.020Z,72.80
2023-01-07T10:25:24.328Z,72.67
2023-01-07T10:28:40.242Z,72.45
2023-01-07T10:31:44.045Z,72.47
2023-01-07T10:34:55.293Z,72.66
2023-01-07T10:38:03.225Z,72.50
2023-01-07T10:41:15.601Z,72.59
2023-01-07T10:44:56.522Z,72.37
2023-01-07T10:48:20.654Z,72.31
2023-01-07T10:52:28.049Z,72.40
2023-01-07T10:55:36.317Z,72.33
2023-01-07T10:58:43.467Z,72.15
2023-01-07T11:01:50.526Z,72.09
2023-01-07T11:05:04.660Z,72.00
2023-01-07T11:08:23.149Z,72.19
2023-01-07T11:11:26.385Z,72.02
2023-01-07T11:14:35.182Z,71.92
2023-01-07T11:17:45.350Z,71.92
2023-01-07T11:21:06.451Z,71.84
2023-01-07T11:24:27.673Z,71.92
2023-01-07T11:27:37.291Z,72.18
2023-01-07T11:34:47.227Z,72.25
2023-01-07T11:37:50.890Z,71.94
2023-01-07T11:41:38.257Z,71.60
2023-01-07T11:46:27.038Z,71.52
2023-01-07T11:53:07.160Z,71.29
2023-01-07T11:56:27.604Z,71.35
2023-01-07T11:59:31.130Z,70.82
2023-01-07T12:02:34.826Z,70.70
2023-01-07T12:05:41.027Z,70.63
2023-01-07T12:09:18.977Z,70.60
2023-01-07T12:12:42.467Z,70.62
2023-01-07T12:16:04.451Z,70.69
2023-01-07T12:24:51.372Z,70.13
2023-01-07T12:28:27.339Z,69.52
2023-01-07T12:31:46.895Z,69.17
2023-01-07T12:35:14.325Z,69.05
2023-01-07T12:38:52.122Z,68.85
2023-01-07T12:42:05.146Z,68.73
2023-01-07T12:45:19.651Z,68.57
2023-01-07T12:48:33.065Z,68.62
2023-01-07T12:51:48.856Z,68.42
2023-01-07T12:55:04.303Z,68.42
2023-01-07T12:58:10.405Z,68.25
2023-01-07T13:01:36.968Z,67.96
2023-01-07T13:05:10.035Z,67.61
2023-01-07T13:08:35.205Z,67.43
2023-01-07T13:12:40.653Z,67.62
2023-01-07T13:15:39.927Z,67.33
2023-01-07T13:18:43.230Z,67.33
2023-01-07T13:21:49.796Z,67.53
2023-01-07T13:25:26.343Z,67.57
2023-01-07T13:28:57.526Z,67.62
2023-01-07T13:32:06.753Z,67.44
2023-01-07T13:35:36.751Z,67.62
2023-01-07T13:38:39.848Z,67.55
2023-01-07T13:42:08.028Z,67.40
2023-01-07T13:45:14.369Z,67.56
2023-01-07T13:48:23.400Z,67.45
2023-01-07T13:51:31.266Z,67.54
2023-01-07T13:54:50.586Z,67.66
2023-01-07T13:57:53.983Z,67.68
2023-01-07T14:01:04.945Z,67.54
2023-01-07T14:04:08.399Z,67.56
2023-01-07T14:07:11.821Z,67.74
2023-01-07T14:10:36.157Z,67.76
2023-01-07T14:13:39.359Z,67.82
2023-01-07T14:16:54.867Z,67.88
2023-01-07T14:20:16.959Z,67.94
2023-01-07T14:23:43.076Z,67.87
2023-01-07T14:27:03.563Z,67.95
2023-01-07T14:30:34.601Z,67.86
2023-01-07T14:34:22.376Z,68.02
2023-01-07T14:37:39.219Z,68.11
2023-01-07T14:41:09.549Z,68.18
2023-01-07T14:44:31.565Z,68.04
2023-01-07T14:48:18.045Z,68.23
2023-01-07T14:52:05.724Z,68.09
2023-01-07T14:55:37.889Z,68.09
2023-01-07T14:59:10.205Z,68.08
2023-01-07T15:03:11.385Z,68.01
2023-01-07T15:06:25.303Z,67.96
2023-01-07T15:10:02.591Z,68.03
2023-01-07T15:13:26.367Z,68.01
2023-01-07T15:16:34.565Z,67.94
2023-01-07T15:19:39.934Z,67.88
2023-01-07T15:22:52.571Z,67.81
2023-01-07T15:26:11.127Z,67.75
2023-01-07T15:29:26.482Z,67.66
2023-01-07T15:32:57.371Z,67.66
2023-01-07T15:36:04.384Z,67.54
2023-01-07T15:39:22.216Z,67.48
2023-01-07T15:42:27.520Z,67.40
2023-01-07T15:45:30.818Z,67.30
2023-01-07T15:48:34.316Z,67.36
2023-01-07T15:51:43.889Z,67.13
2023-01-07T15:54:47.199Z,67.02
2023-01-07T15:57:53.232Z,66.65
2023-01-07T16:01:00.230Z,66.84
2023-01-07T16:04:05.741Z,66.83
2023-01-07T16:07:22.414Z,66.78
2023-01-07T16:10:34.666Z,66.63
2023-01-07T16:13:38.122Z,66.47
2023-01-07T16:16:41.543Z,66.57
2023-01-07T16:19:44.946Z,66.42
2023-01-07T16:22:48.879Z,66.36
2023-01-07T16:26:02.903Z,66.45
2023-01-07T16:29:11.438Z,66.42
2023-01-07T16:32:16.236Z,66.59
2023-01-07T16:35:39.214Z,66.59
2023-01-07T16:38:44.904Z,66.88
2023-01-07T16:41:48.487Z,67.02
2023-01-07T16:53:49.147Z,66.34
2023-01-07T16:57:11.935Z,66.56
2023-01-07T17:00:20.342Z,66.56
2023-01-07T17:03:25.349Z,66.35
2023-01-07T17:06:39.762Z,66.29
2023-01-07T17:09:43.021Z,66.28
2023-01-07T17:13:15.275Z,66.29
2023-01-07T17:16:32.794Z,66.46
2023-01-07T17:19:41.470Z,66.43
2023-01-07T17:22:45.829Z,66.47
2023-01-07T17:25:55.391Z,66.25
2023-01-07T17:29:12.948Z,66.22
2023-01-07T17:32:16.751Z,66.06
2023-01-07T17:35:22.326Z,66.19
2023-01-07T17:38:28.071Z,66.26
2023-01-07T17:41:54.604Z,66.56
2023-01-07T17:44:57.846Z,66.48
2023-01-07T17:48:01.504Z,66.26
2023-01-07T17:51:05.769Z,66.19
2023-01-07T17:54:17.971Z,66.22
2023-01-07T17:57:21.218Z,65.88
2023-01-07T18:00:27.320Z,65.98
2023-01-07T18:03:30.583Z,66.01
2023-01-07T18:06:35.804Z,65.82
2023-01-07T18:09:42.154Z,66.28
2023-01-07T18:12:46.346Z,66.14
2023-01-07T18:15:49.555Z,66.50
2023-01-07T18:18:53.216Z,66.73
2023-01-07T18:21:56.505Z,66.55
2023-01-07T18:24:59.678Z,66.45
2023-01-07T18:28:04.340Z,66.27
2023-01-07T18:31:08.093Z,66.23
2023-01-07T18:34:13.240Z,66.02
2023-01-07T18:37:17.820Z,65.92
2023-01-07T18:40:21.279Z,65.90
2023-01-07T18:43:24.735Z,65.78
2023-01-07T18:46:28.127Z,66.09
2023-01-07T18:49:31.346Z,65.96
2023-01-07T18:52:34.652Z,66.18
2023-01-07T18:55:40.094Z,66.29
2023-01-07T18:58:44.356Z,66.29
2023-01-07T19:01:47.963Z,66.14
2023-01-07T19:04:51.299Z,66.06
2023-01-07T19:07:55.539Z,66.04
2023-01-07T19:10:58.846Z,66.13
2023-01-07T19:14:02.090Z,66.06
2023-01-07T19:17:05.834Z,66.39
2023-01-07T19:20:10.151Z,66.20
2023-01-07T19:23:17.593Z,66.67
2023-01-07T19:26:21.605Z,66.41
2023-01-07T19:29:24.868Z,66.61
2023-01-07T19:32:30.500Z,66.68
2023-01-07T19:35:33.816Z,67.18
2023-01-07T19:38:41.780Z,67.62
2023-01-07T19:41:45.415Z,68.18
2023-01-07T19:44:48.725Z,68.05
2023-01-07T19:47:51.970Z,68.35
2023-01-07T19:50:57.619Z,68.18
2023-01-07T19:54:01.353Z,67.81
2023-01-07T19:57:04.783Z,67.70
2023-01-07T20:00:08.694Z,67.60
2023-01-07T20:03:11.937Z,67.70
2023-01-07T20:06:17.755Z,67.52
2023-01-07T20:09:22.939Z,67.63
2023-01-07T20:12:28.265Z,67.52
2023-01-07T20:15:32.013Z,67.41
2023-01-07T20:18:42.364Z,67.48
2023-01-07T20:21:46.797Z,67.59
2023-01-07T20:24:50.050Z,67.81
2023-01-07T20:27:53.267Z,68.47
2023-01-07T20:30:56.517Z,68.81
2023-01-07T20:34:00.780Z,68.91
2023-01-07T20:37:04.607Z,69.33
2023-01-07T20:40:08.765Z,69.36
2023-01-07T20:43:12.859Z,69.36
2023-01-07T20:46:16.244Z,69.34
2023-01-07T20:49:19.476Z,69.33
2023-01-07T20:52:22.685Z,69.37
2023-01-07T20:55:25.953Z,69.56
2023-01-07T20:58:34.663Z,69.54
2023-01-07T21:01:38.261Z,69.54
2023-01-07T21:04:41.603Z,69.64
2023-01-07T21:07:44.799Z,69.72
2023-01-07T21:10:48.035Z,69.58
2023-01-07T21:13:52.234Z,69.63
2023-01-07T21:16:55.451Z,69.67
2023-01-07T21:19:58.662Z,69.73
2023-01-07T21:23:02.014Z,69.93
2023-01-07T21:26:06.948Z,69.97
2023-01-07T21:29:10.181Z,69.98
2023-01-07T21:32:13.589Z,69.94
2023-01-07T21:35:16.811Z,69.97
2023-01-07T21:38:20.113Z,70.13
2023-01-07T21:41:29.032Z,70.08
2023-01-07T21:44:34.160Z,70.00
2023-01-07T21:47:37.435Z,70.25
2023-01-07T21:50:40.675Z,70.16
2023-01-07T21:53:44.109Z,70.36
2023-01-07T21:56:47.313Z,70.42
2023-01-07T21:59:50.666Z,70.36
2023-01-07T22:02:53.857Z,70.40
2023-01-07T22:06:05.319Z,70.49
2023-01-07T22:09:13.014Z,70.61
2023-01-07T22:12:16.382Z,70.61
2023-01-07T22:15:19.668Z,70.31
2023-01-07T22:18:22.949Z,70.51
2023-01-07T22:21:26.336Z,70.51
2023-01-07T22:24:29.863Z,70.37
2023-01-07T22:27:33.122Z,70.40
2023-01-07T22:30:39.719Z,70.43
2023-01-07T22:33:42.932Z,70.50
2023-01-07T22:37:11.172Z,70.40
2023-01-07T22:40:14.581Z,70.54
2023-01-07T22:43:21.032Z,70.54
2023-01-07T22:46:29.202Z,70.39
2023-01-07T22:49:33.092Z,70.57
2023-01-07T22:52:38.057Z,70.61
2023-01-07T22:55:41.205Z,70.59
2023-01-07T22:58:44.640Z,70.79
2023-01-07T23:01:47.860Z,70.82
2023-01-07T23:04:51.017Z,70.87
2023-01-07T23:07:54.250Z,70.87
2023-01-07T23:10:57.497Z,70.83
2023-01-07T23:14:00.731Z,70.85
2023-01-07T23:17:04.160Z,70.89
2023-01-07T23:20:07.731Z,70.80
2023-01-07T23:23:12.485Z,71.02
2023-01-07T23:26:16.255Z,70.67
2023-01-07T23:29:20.111Z,70.67
2023-01-07T23:32:23.384Z,70.85
2023-01-07T23:35:26.689Z,70.84
2023-01-07T23:38:29.952Z,70.63
2023-01-07T23:41:33.323Z,70.88
2023-01-07T23:44:36.536Z,70.70
2023-01-07T23:47:39.755Z,70.82
2023-01-07T23:50:42.985Z,70.91
2023-01-07T23:53:46.928Z,70.95
2023-01-07T23:56:51.013Z,71.00
2023-01-07T23:59:54.268Z,70.88
